Aeneas, Washington
Current Conditions -  °F | °C
As of 1:53 PM on Wednesday 22 Oct 2014 (Local Time) from KOMK Reporting Station
Light Rain Light Rain  
Wind Chill: 47°   Ceiling: 2700
Heat Index: 49°   Visibility: 7mi
Dew Point: 47°   Wind: 6mph
Humidity: 93%   Direction: 190°S
Pressure: 29.81"   Gusts: NA
Location:  48.6708°N, 119.278°W
Report Text: KOMK 222053Z AUTO 19005KT 7SM -RA OVC027 09/08 A2981 RMK AO2 SLP097 P0008 60024 T00940083 58007
Loading
Personal Weather Stations






























Interactive Weather Map
Tropical Storm Tracking
New forecast layout! Learn more

10-Day Weather Forecast

Advertisements
Track Severe Weather on mobile